Flugplatz Fritzlar Airport

Bericht für ETHF

vom 25.10. um 17:20 UTC

variable Windrichtung mit 1 kt

Sichtweite 10 km oder mehr

gering bewölkt in 10000 ft

Temperatur 7.0°C

Taupunkt 5.0°C

Luftfeuchtigkeit 87%

Luftdruck 1018 hPa

ETHF 251720Z VRB01KT 9999 FEW100 07/05 Q1018 BLU+

Prognose für ETHF

vom 25.10. um 13:20 UTC

Zwischen 14:00 UTC und 23:00 UTC

Wind 5 kt aus 180°

Sichtweite 10 km oder mehr

keine signifikanten Wettererscheinungen

aufgelockert bewölkt in 5000 ft

aufgebrochene Bewölkung in 24000 ft

TAF ETHF 251320Z 2514/2523 18005KT 9999 NSW SCT050 BKN240
Impressum